Latest Weather Observations for Curtin

IDW60801

Issued at 10:13 pm WST Tuesday 7 December 2021 (issued every 10 minutes, with the page automatically refreshed every 10 minutes)

About weather observations | Map of weather stations | Latest weather observations for WA | Other Formats
Station Details ID: 003080 Name: CURTIN AERO Lat: -17.58 Lon: 123.83 Height: 77.5 m
Data from the previous 72 hours. | See also: Recent months at Curtin
Date/Time
WST
Temp
°C
App
Temp
°C
Dew
Point
°C
Rel
Hum
%
Delta-T
°C
Wind Press
QNH
hPa
Press
MSL
hPa
Rain since
9am
mm
Dir  Spd
km/h
Gust
km/h
Spd
kts
Gust
kts
07/10:00pm 29.7 35.2 26.1 81 2.6 NW 9 13 5 7 1006.6 1006.0 0.0
07/09:30pm 29.8 35.2 25.5 78 3.0 NNW 7 9 4 5 1006.6 1006.0 0.0
07/09:00pm 30.0 35.3 25.3 76 3.3 NW 7 11 4 6 1006.7 1006.1 0.0
07/08:30pm 30.2 34.6 25.0 73 3.7 NW 11 15 6 8 1006.8 1006.2 0.0
07/08:00pm 30.5 33.1 24.9 72 4.0 NW 20 32 11 17 1006.3 1005.7 0.0
07/07:49pm 30.8 33.3 24.7 70 4.3 WNW 20 39 11 21 1006.5 1005.9 0.0
07/07:30pm 31.2 34.4 23.0 61 5.6 WNW 11 15 6 8 1006.3 1005.7 0.0
07/07:00pm 31.8 34.7 22.5 58 6.4 NNW 11 17 6 9 1004.8 1004.1 0.0
07/06:30pm 32.5 34.0 22.0 54 7.2 NW 17 24 9 13 1004.6 1003.9 0.0
07/06:00pm 34.1 35.9 21.9 49 8.4 NW 15 22 8 12 1004.4 1003.7 0.0
07/05:30pm 36.2 36.7 20.0 38 10.9 NW 17 24 9 13 1003.4 1002.7 0.0
07/05:00pm 37.4 37.6 19.3 34 12.1 WNW 17 22 9 12 1003.0 1002.3 0.0
07/04:30pm 37.8 37.9 19.2 33 12.4 NW 17 22 9 12 1002.6 1001.9 0.0
07/04:00pm 38.6 39.9 18.4 30 13.4 NNW 9 15 5 8 1002.5 1001.8 0.0
07/03:30pm 37.7 38.3 18.7 33 12.6 NNW 13 20 7 11 1002.8 1002.1 0.0
07/03:00pm 38.6 39.7 18.9 31 13.1 NW 11 22 6 12 1003.0 1002.3 0.0
07/02:30pm 39.1 41.1 17.8 28 14.0 N 4 11 2 6 1003.4 1002.7 0.0
07/02:00pm 37.4 38.0 16.9 30 13.3 NE 9 13 5 7 1004.0 1003.3 0.0
07/01:30pm 37.4 38.6 17.4 30 13.0 ENE 7 13 4 7 1004.3 1003.6 0.0
07/01:00pm 36.7 37.9 18.3 34 12.1 N 9 15 5 8 1004.8 1004.1 0.0
07/12:30pm 37.4 38.9 18.9 34 12.3 W 9 15 5 8 1005.0 1004.3 0.0
07/12:00pm 35.7 36.2 18.3 35 11.4 WNW 13 19 7 10 1005.2 1004.6 0.0
07/11:30am 35.3 36.8 17.5 34 11.5 NNW 6 15 3 8 1005.5 1004.9 0.0
07/11:00am 34.5 36.0 19.7 41 9.9 NNW 11 15 6 8 1005.7 1005.1 0.0
07/10:30am 34.4 35.5 18.0 37 10.7 NW 9 15 5 8 1006.1 1005.5 0.0
07/10:00am 33.3 35.6 19.4 44 9.2 N 6 11 3 6 1006.4 1005.8 0.0
07/09:30am 33.0 34.0 19.5 45 8.9 NNW 13 20 7 11 1006.7 1006.1 0.0
07/09:00am 32.3 33.2 19.2 46 8.6 NNW 13 20 7 11 1006.9 1006.3 38.2
07/08:30am 30.7 32.3 20.0 52 7.1 N 11 17 6 9 1007.0 1006.4 38.2
07/08:00am 29.2 31.6 20.9 61 5.5 N 9 13 5 7 1006.7 1006.1 38.2
07/07:30am 28.1 30.1 21.6 68 4.4 SW 13 17 7 9 1006.0 1005.4 38.2
07/07:00am 27.1 30.6 22.9 78 2.9 SSW 9 11 5 6 1006.3 1005.7 38.2
07/06:30am 26.2 28.8 22.7 81 2.4 WSW 13 15 7 8 1006.1 1005.5 38.2
07/06:00am 25.7 29.0 23.2 86 1.7 SW 11 13 6 7 1006.0 1005.4 38.2
07/05:30am 25.5 29.1 23.7 90 1.2 WSW 11 15 6 8 1005.9 1005.3 38.2
07/05:00am 25.3 28.4 23.5 90 1.2 W 13 17 7 9 1005.4 1004.8 38.2
07/04:30am 25.4 27.9 22.5 84 2.0 W 13 17 7 9 1005.5 1004.9 38.2
07/04:00am 25.2 27.0 21.1 78 2.7 WNW 13 19 7 10 1005.4 1004.8 38.2
07/03:30am 25.0 27.1 20.9 78 2.7 WNW 11 17 6 9 1005.1 1004.5 38.2
07/03:00am 25.2 26.0 20.7 76 3.0 NW 17 20 9 11 1004.5 1003.8 38.2
07/02:30am 24.7 27.1 21.6 83 2.1 NW 11 15 6 8 1004.6 1003.9 38.2
07/02:00am 24.9 27.9 21.2 80 2.5 N 7 13 4 7 1004.1 1003.4 38.2
07/01:30am 26.8 26.9 18.4 60 5.4 W 15 20 8 11 1004.5 1003.8 38.2
07/01:00am 25.0 26.8 20.3 75 3.1 NNW 11 17 6 9 1004.8 1004.1 38.2
07/12:30am 24.7 25.1 20.6 78 2.7 N 19 28 10 15 1004.9 1004.2 38.0
07/12:09am 24.2 26.5 21.3 84 1.9 N 11 17 6 9 1005.7 1005.1 37.6
07/12:00am 24.0 26.2 21.1 84 1.9 NNE 11 17 6 9 1005.9 1005.3 37.6
 
Date/Time
WST
Temp
°C
App
Temp
°C
Dew
Point
°C
Rel
Hum
%
Delta-T
°C
Wind Press
QNH
hPa
Press
MSL
hPa
Rain since
9am
mm
Dir  Spd
km/h
Gust
km/h
Spd
kts
Gust
kts
06/11:56pm 23.9 26.1 21.2 85 1.8 NNE 11 17 6 9 1005.9 1005.3 37.4
06/11:30pm 23.1 24.7 21.5 91 1.1 NW 15 22 8 12 1006.5 1005.9 37.0
06/11:23pm 22.8 24.4 21.4 92 0.9 NNW 15 22 8 12 1006.2 1005.6 37.0
06/11:13pm 22.8 24.0 21.4 92 0.9 N 17 22 9 12 1006.6 1006.0 37.0
06/11:08pm 22.7 23.5 21.3 92 0.9 N 19 26 10 14 1006.6 1006.0 37.0
06/11:00pm 22.7 23.5 21.3 92 0.9 NNE 19 26 10 14 1006.2 1005.6 37.0
06/10:44pm 22.1 22.2 21.8 98 0.2 NE 24 33 13 18 1007.7 1007.1 37.0
06/10:30pm 22.0 21.4 22.0 100 0.0 ENE 28 39 15 21 1008.2 1007.6 36.0
06/10:13pm 22.6 22.7 22.6 100 0.0 ESE 26 44 14 24 1008.4 1007.8 30.8
06/10:00pm 22.2 20.0 22.2 100 0.0 ESE 37 50 20 27 1008.2 1007.6 21.2
06/09:57pm 22.0 20.1 22.0 100 0.0 ESE 35 50 19 27 1008.3 1007.7 18.6
06/09:44pm 22.8 19.9 20.9 89 1.2 ESE 37 67 20 36 1008.8 1008.2 1.0
06/09:38pm 28.4 28.9 19.3 57 5.9 SSW 15 57 8 31 1008.6 1008.0 0.0
06/09:30pm 30.2 34.6 25.7 77 3.2 WNW 13 17 7 9 1006.7 1006.1 0.0
06/09:21pm 30.1 34.5 25.6 77 3.2 NW 13 17 7 9 1005.4 1004.8 0.0
06/09:00pm 30.1 33.5 25.2 75 3.5 NNW 17 22 9 12 1005.7 1005.1 0.0
06/08:30pm 30.2 32.7 24.4 71 4.1 NW 19 30 10 16 1004.4 1003.7 0.0
06/08:00pm 30.2 32.1 24.4 71 4.1 NNW 22 37 12 20 1003.3 1002.6 0.0
06/07:30pm 30.3 31.8 23.7 68 4.6 NNW 22 33 12 18 1003.2 1002.5 0.0
06/07:00pm 30.4 31.3 23.3 66 4.9 NNW 24 35 13 19 1002.9 1002.2 0.0
06/06:30pm 30.5 31.2 23.7 67 4.7 NNW 26 39 14 21 1002.7 1002.0 0.0
06/06:00pm 30.9 31.4 23.3 64 5.3 NNW 26 39 14 21 1002.1 1001.4 0.0
06/05:30pm 31.3 31.3 23.1 61 5.7 NNW 28 39 15 21 1002.2 1001.5 0.0
06/05:00pm 32.0 32.4 22.4 57 6.6 NNW 24 32 13 17 1001.9 1001.2 0.0
06/04:30pm 33.8 34.5 22.9 53 7.5 NW 24 35 13 19 1001.4 1000.7 0.0
06/04:00pm 36.3 36.7 22.5 45 9.6 NNW 24 35 13 19 1000.7 1000.1 0.0
06/03:30pm 37.5 37.3 21.2 38 11.1 NW 24 33 13 18 1000.9 1000.3 0.0
06/03:00pm 37.9 37.4 21.5 38 11.3 NW 26 35 14 19 1000.8 1000.2 0.0
06/02:30pm 38.2 38.4 21.4 37 11.5 NW 22 32 12 17 1001.0 1000.4 0.0
06/02:00pm 38.5 38.6 20.3 34 12.4 NW 20 33 11 18 1001.1 1000.5 0.0
06/01:30pm 38.9 38.4 18.7 30 13.4 NW 19 28 10 15 1001.5 1000.8 0.0
06/01:00pm 38.8 38.5 19.6 32 12.9 NW 20 32 11 17 1001.8 1001.1 0.0
06/12:30pm 38.6 39.6 21.7 37 11.6 NNW 19 32 10 17 1001.9 1001.2 0.0
06/12:00pm 37.4 39.1 23.1 44 10.0 NNW 19 32 10 17 1002.3 1001.6 0.0
06/11:30am 38.7 40.7 23.9 43 10.5 NW 20 30 11 16 1002.8 1002.1 0.0
06/11:00am 38.6 40.5 21.3 36 11.9 NNW 13 20 7 11 1003.2 1002.5 0.0
06/10:30am 38.0 41.0 21.2 37 11.5 N 7 17 4 9 1003.5 1002.8 0.0
06/10:00am 36.3 38.0 20.9 40 10.5 W 13 17 7 9 1003.7 1003.0 0.0
06/09:30am 35.9 38.6 21.3 42 9.9 WSW 9 19 5 10 1004.0 1003.3 0.0
06/09:00am 34.1 36.8 22.2 50 8.2 NNE 11 17 6 9 1004.6 1003.9 0.0
06/08:30am 32.9 36.3 22.7 55 7.0 NW 9 17 5 9 1004.9 1004.2 0.0
06/08:00am 31.5 34.9 23.3 61 5.7 NNW 11 17 6 9 1004.9 1004.2 0.0
06/07:30am 30.7 33.5 23.6 66 4.9 NNW 15 20 8 11 1004.7 1004.0 0.0
06/07:00am 29.7 34.0 24.3 73 3.8 NNW 9 15 5 8 1004.6 1003.9 0.0
06/06:30am 28.7 33.3 24.7 79 2.8 NW 9 13 5 7 1004.3 1003.6 0.0
06/06:00am 28.1 33.4 25.3 85 2.0 W 7 11 4 6 1004.2 1003.5 0.0
06/05:30am 27.1 31.9 25.1 89 1.4 WNW 9 13 5 7 1004.0 1003.3 0.0
06/05:00am 26.9 30.9 25.1 90 1.3 NNW 13 20 7 11 1003.5 1002.8 0.0
06/04:30am 27.1 31.7 24.7 87 1.7 NW 9 13 5 7 1004.1 1003.4 0.0
06/04:00am 27.7 31.6 24.9 85 2.0 W 13 17 7 9 1004.1 1003.4 0.0
06/03:30am 28.1 31.9 25.3 85 2.0 SW 15 22 8 12 1004.6 1003.9 0.0
06/03:00am 28.2 32.3 25.2 84 2.1 WNW 13 19 7 10 1003.4 1002.7 0.0
06/02:30am 28.2 31.0 25.0 83 2.2 WNW 19 26 10 14 1003.2 1002.5 0.0
06/02:00am 28.2 31.1 25.4 85 2.0 WNW 20 28 11 15 1003.2 1002.5 0.0
06/01:30am 28.1 31.6 25.5 86 1.8 NW 17 26 9 14 1003.4 1002.7 0.0
06/01:00am 28.1 31.9 25.3 85 2.0 NW 15 20 8 11 1003.6 1002.9 0.0
06/12:30am 28.2 31.4 25.0 83 2.2 NW 17 24 9 13 1003.6 1002.9 0.0
06/12:00am 28.5 31.7 24.9 81 2.5 NW 17 24 9 13 1003.8 1003.1 0.0
 
Date/Time
WST
Temp
°C
App
Temp
°C
Dew
Point
°C
Rel
Hum
%
Delta-T
°C
Wind Press
QNH
hPa
Press
MSL
hPa
Rain since
9am
mm
Dir  Spd
km/h
Gust
km/h
Spd
kts
Gust
kts
05/11:30pm 28.9 31.6 24.7 78 2.9 NW 19 28 10 15 1004.2 1003.5 0.0
05/11:00pm 29.3 32.0 24.2 74 3.6 NW 17 26 9 14 1004.1 1003.4 0.0
05/10:30pm 29.8 31.7 23.5 69 4.4 NW 19 26 10 14 1004.0 1003.3 0.0
05/10:00pm 30.1 31.9 22.5 63 5.2 NW 17 26 9 14 1003.9 1003.2 0.0
05/09:30pm 30.3 31.3 21.7 60 5.8 WNW 19 28 10 15 1003.5 1002.8 0.0
05/09:00pm 30.0 30.3 19.7 54 6.8 NW 17 24 9 13 1003.3 1002.6 0.0
05/08:30pm 30.2 29.1 17.3 46 8.2 NW 19 30 10 16 1003.3 1002.6 0.0
05/08:00pm 30.4 31.3 17.5 46 8.3 NNW 9 13 5 7 1002.5 1001.8 0.0
05/07:30pm 30.5 29.7 17.9 47 8.1 NW 19 26 10 14 1002.5 1001.8 0.0
05/07:03pm 30.9 30.3 17.6 45 8.5 NNE 17 24 9 13 1003.3 1002.6 0.0
05/07:00pm 31.0 30.7 17.3 43 8.8 N 15 20 8 11 1003.4 1002.7 0.0
05/06:50pm 31.4 31.3 16.9 41 9.2 N 13 20 7 11 1003.7 1003.0 0.0
05/06:35pm 31.4 31.4 17.3 42 9.0 NW 13 26 7 14 1004.5 1003.8 0.0
05/06:30pm 31.6 31.4 17.5 43 9.0 W 15 26 8 14 1004.7 1004.0 0.0
05/06:25pm 32.1 31.5 17.6 42 9.3 WSW 17 28 9 15 1004.5 1003.8 0.0
05/06:00pm 32.9 34.2 24.6 61 5.9 WSW 26 35 14 19 1004.4 1003.7 0.0
05/05:57pm 32.7 34.0 24.7 62 5.6 WSW 26 39 14 21 1003.7 1003.0 0.0
05/05:30pm 33.2 34.2 23.5 56 6.8 NW 24 35 13 19 1001.7 1001.0 0.0
05/05:00pm 34.8 35.8 23.5 52 7.9 NNW 24 35 13 19 1001.7 1001.0 0.0
05/04:30pm 36.2 35.6 22.0 43 9.8 NNW 28 39 15 21 1000.9 1000.3 0.0
05/04:00pm 38.6 37.6 20.4 34 12.4 NNW 26 37 14 20 1000.8 1000.2 0.0
05/03:30pm 40.0 38.9 18.6 29 14.2 NNW 22 33 12 18 1000.7 1000.1 0.0
05/03:00pm 41.8 40.4 17.1 24 16.3 NW 20 30 11 16 1001.1 1000.5 0.0
05/02:30pm 40.8 39.4 16.9 24 15.6 NW 20 26 11 14 1001.5 1000.8 0.0
05/02:00pm 41.8 41.0 15.0 21 17.2 WNW 13 20 7 11 1001.9 1001.2 0.0
05/01:30pm 41.1 39.5 15.1 21 16.6 W 17 24 9 13 1002.4 1001.7 0.0
05/01:00pm 41.6 40.2 15.5 21 16.8 NW 17 30 9 16 1002.9 1002.2 0.0
05/12:30pm 40.4 38.6 15.9 23 15.8 WNW 20 28 11 15 1003.5 1002.8 0.0
05/12:00pm 39.0 39.2 17.7 28 14.0 NW 13 22 7 12 1004.1 1003.4 0.0
05/11:30am 39.2 39.6 19.0 31 13.5 NW 15 26 8 14 1004.6 1003.9 0.0
05/11:00am 38.0 38.2 19.4 33 12.5 NW 17 24 9 13 1005.1 1004.5 0.0
05/10:30am 37.2 37.6 18.2 32 12.5 WNW 13 20 7 11 1005.6 1005.0 0.0
05/10:00am 36.1 36.0 18.7 36 11.5 NW 17 22 9 12 1006.1 1005.5 0.0
05/09:30am 34.9 35.8 19.3 40 10.3 NNW 13 24 7 13 1006.6 1006.0 0.0
05/09:00am 34.5 36.0 21.2 46 9.0 NW 15 22 8 12 1006.9 1006.3 0.0
05/08:30am 33.0 34.6 21.5 50 7.8 NW 15 20 8 11 1007.2 1006.6 0.0
05/08:00am 31.7 34.8 23.5 62 5.7 NW 13 20 7 11 1007.2 1006.6 0.0
05/07:30am 30.7 34.1 24.1 68 4.6 NW 13 20 7 11 1007.2 1006.6 0.0
05/07:00am 29.8 33.4 24.4 73 3.8 WNW 13 19 7 10 1007.2 1006.6 0.0
05/06:30am 28.8 32.4 25.0 80 2.7 NW 15 20 8 11 1007.2 1006.6 0.0
05/06:00am 28.0 32.5 25.2 85 2.0 WNW 11 17 6 9 1007.2 1006.6 0.0
05/05:30am 27.4 31.9 25.2 88 1.5 NW 11 13 6 7 1006.7 1006.1 0.0
05/05:00am 26.8 31.4 25.4 92 1.0 NW 11 15 6 8 1006.0 1005.4 0.0
05/04:30am 26.6 32.2 25.7 95 0.6 NW 7 11 4 6 1005.7 1005.1 0.0
05/04:00am 26.8 32.4 25.8 94 0.7 NNW 7 11 4 6 1005.6 1005.0 0.0
05/03:30am 26.9 32.0 25.5 92 1.0 NNW 9 13 5 7 1005.5 1004.9 0.0
05/03:29am 26.9 32.0 25.5 92 1.0 NNW 9 13 5 7 1005.5 1004.9 0.0
05/03:00am 26.9 31.2 24.9 89 1.4 N 11 15 6 8 1005.5 1004.9 0.0
05/02:59am 26.9 31.1 24.7 88 1.5 N 11 13 6 7 1005.5 1004.9 0.0
05/02:30am 27.2 31.4 24.1 83 2.1 N 9 13 5 7 1005.2 1004.6 0.0
05/02:00am 27.6 30.9 23.2 77 3.0 N 11 15 6 8 1005.2 1004.6 0.0
05/01:30am 28.1 31.3 22.3 70 3.9 NNW 9 13 5 7 1004.9 1004.2 0.0
05/01:00am 28.8 31.3 21.8 66 4.7 NW 11 15 6 8 1004.8 1004.1 0.0
05/12:30am 29.1 31.3 21.8 64 4.9 NW 13 17 7 9 1004.9 1004.2 0.0
05/12:00am 29.4 32.5 22.9 68 4.5 NW 11 17 6 9 1005.0 1004.3 0.0
 
Date/Time
WST
Temp
°C
App
Temp
°C
Dew
Point
°C
Rel
Hum
%
Delta-T
°C
Wind Press
QNH
hPa
Press
MSL
hPa
Rain since
9am
mm
Dir  Spd
km/h
Gust
km/h
Spd
kts
Gust
kts
04/11:30pm 29.8 33.2 23.3 68 4.5 NNW 11 15 6 8 1005.2 1004.6 0.0
04/11:00pm 30.4 33.3 23.1 65 5.0 NW 13 17 7 9 1005.3 1004.7 0.0
04/10:30pm 31.2 33.7 22.5 60 6.0 NNW 13 20 7 11 1005.5 1004.9 0.0

Other formats

Comma delimited format used in spreadsheet applications
http://www.bom.gov.au/fwo/IDW60801/IDW60801.94204.axf

JavaScript Object Notation format (JSON) in row-major order
http://www.bom.gov.au/fwo/IDW60801/IDW60801.94204.json

Data quality

Most of these data are generated automatically and are frequently updated. Quality checks on data are not normally performed. It is possible for incorrect values to appear. Refer to information at About Latest Weather Observations and please check the disclaimer before using these data.